sensor_id;sensor_type;location;lat;lon;timestamp;pressure;altitude;pressure_sealevel;temperature;humidity
7824;BME280;3957;48.61947800;9.05303100;2023-02-11T00:00:41;97969.44;;;-3.73;100.00
7824;BME280;3957;48.61947800;9.05303100;2023-02-11T00:01:42;97967.22;;;-3.83;100.00
7824;BME280;3957;48.61947800;9.05303100;2023-02-11T00:02:43;97976.47;;;-3.95;100.00
7824;BME280;3957;48.61947800;9.05303100;2023-02-11T00:03:44;97975.25;;;-4.06;100.00
7824;BME280;3957;48.61947800;9.05303100;2023-02-11T00:04:44;97973.06;;;-4.17;100.00
7824;BME280;3957;48.61947800;9.05303100;2023-02-11T00:05:44;97967.31;;;-4.25;100.00
7824;BME280;3957;48.61947800;9.05303100;2023-02-11T00:06:45;97974.63;;;-4.34;100.00
7824;BME280;3957;48.61947800;9.05303100;2023-02-11T00:07:45;97973.28;;;-4.42;100.00
7824;BME280;3957;48.61947800;9.05303100;2023-02-11T00:08:45;97970.97;;;-4.50;100.00
7824;BME280;3957;48.61947800;9.05303100;2023-02-11T00:09:46;97970.44;;;-4.58;100.00
7824;BME280;3957;48.61947800;9.05303100;2023-02-11T00:10:50;97971.59;;;-4.66;100.00
7824;BME280;3957;48.61947800;9.05303100;2023-02-11T00:11:51;97972.78;;;-4.73;100.00
7824;BME280;3957;48.61947800;9.05303100;2023-02-11T00:12:51;97972.09;;;-4.78;100.00
7824;BME280;3957;48.61947800;9.05303100;2023-02-11T00:13:52;97974.00;;;-4.82;100.00
7824;BME280;3957;48.61947800;9.05303100;2023-02-11T00:14:52;97978.56;;;-4.87;100.00
7824;BME280;3957;48.61947800;9.05303100;2023-02-11T00:15:53;97969.97;;;-4.90;100.00
7824;BME280;3957;48.61947800;9.05303100;2023-02-11T00:16:54;97966.72;;;-4.96;100.00
7824;BME280;3957;48.61947800;9.05303100;2023-02-11T00:17:54;97967.63;;;-4.97;100.00
7824;BME280;3957;48.61947800;9.05303100;2023-02-11T00:18:55;97970.44;;;-5.01;100.00
7824;BME280;3957;48.61947800;9.05303100;2023-02-11T00:19:56;97966.09;;;-5.02;100.00
7824;BME280;3957;48.61947800;9.05303100;2023-02-11T00:20:56;97962.81;;;-5.07;100.00
7824;BME280;3957;48.61947800;9.05303100;2023-02-11T00:21:56;97963.00;;;-5.12;100.00
7824;BME280;3957;48.61947800;9.05303100;2023-02-11T00:22:57;97963.09;;;-5.15;100.00
7824;BME280;3957;48.61947800;9.05303100;2023-02-11T00:23:58;97968.31;;;-5.15;100.00
7824;BME280;3957;48.61947800;9.05303100;2023-02-11T00:25:01;97966.53;;;-5.13;100.00
7824;BME280;3957;48.61947800;9.05303100;2023-02-11T00:26:01;97965.06;;;-4.98;100.00
7824;BME280;3957;48.61947800;9.05303100;2023-02-11T00:27:02;97964.47;;;-5.05;100.00
7824;BME280;3957;48.61947800;9.05303100;2023-02-11T00:28:02;97961.91;;;-5.06;100.00
7824;BME280;3957;48.61947800;9.05303100;2023-02-11T00:29:03;97972.38;;;-5.06;100.00
7824;BME280;3957;48.61947800;9.05303100;2023-02-11T00:30:05;97970.66;;;-5.07;100.00
7824;BME280;3957;48.61947800;9.05303100;2023-02-11T00:31:06;97979.44;;;-5.10;100.00
7824;BME280;3957;48.61947800;9.05303100;2023-02-11T00:32:06;97976.84;;;-5.10;100.00
7824;BME280;3957;48.61947800;9.05303100;2023-02-11T00:33:08;97978.59;;;-5.10;100.00
7824;BME280;3957;48.61947800;9.05303100;2023-02-11T00:34:08;97973.44;;;-5.12;100.00
7824;BME280;3957;48.61947800;9.05303100;2023-02-11T00:35:08;97971.63;;;-5.10;100.00
7824;BME280;3957;48.61947800;9.05303100;2023-02-11T00:36:20;97973.50;;;-5.14;100.00
7824;BME280;3957;48.61947800;9.05303100;2023-02-11T00:37:21;97974.41;;;-5.15;100.00
7824;BME280;3957;48.61947800;9.05303100;2023-02-11T00:38:21;97969.91;;;-5.11;100.00
7824;BME280;3957;48.61947800;9.05303100;2023-02-11T00:39:22;97975.19;;;-5.13;100.00
7824;BME280;3957;48.61947800;9.05303100;2023-02-11T00:40:22;97971.81;;;-5.15;100.00
7824;BME280;3957;48.61947800;9.05303100;2023-02-11T00:41:23;97970.16;;;-5.17;100.00
7824;BME280;3957;48.61947800;9.05303100;2023-02-11T00:42:24;97972.78;;;-5.17;100.00
7824;BME280;3957;48.61947800;9.05303100;2023-02-11T00:43:25;97965.97;;;-5.21;100.00
7824;BME280;3957;48.61947800;9.05303100;2023-02-11T00:44:25;97966.88;;;-5.22;100.00
7824;BME280;3957;48.61947800;9.05303100;2023-02-11T00:45:26;97972.97;;;-5.22;100.00
7824;BME280;3957;48.61947800;9.05303100;2023-02-11T00:46:28;97970.22;;;-5.19;100.00
7824;BME280;3957;48.61947800;9.05303100;2023-02-11T00:47:28;97962.47;;;-5.20;100.00
7824;BME280;3957;48.61947800;9.05303100;2023-02-11T00:48:29;97962.56;;;-5.23;100.00
7824;BME280;3957;48.61947800;9.05303100;2023-02-11T00:49:29;97959.94;;;-5.23;100.00
7824;BME280;3957;48.61947800;9.05303100;2023-02-11T00:50:30;97954.84;;;-5.26;100.00
7824;BME280;3957;48.61947800;9.05303100;2023-02-11T00:51:30;97952.97;;;-5.23;100.00
7824;BME280;3957;48.61947800;9.05303100;2023-02-11T00:52:31;97939.94;;;-5.23;100.00
7824;BME280;3957;48.61947800;9.05303100;2023-02-11T00:53:32;97945.28;;;-5.26;100.00
7824;BME280;3957;48.61947800;9.05303100;2023-02-11T00:54:33;97944.53;;;-5.30;100.00
7824;BME280;3957;48.61947800;9.05303100;2023-02-11T00:55:33;97946.41;;;-5.33;100.00
7824;BME280;3957;48.61947800;9.05303100;2023-02-11T00:56:34;97950.84;;;-5.35;100.00
7824;BME280;3957;48.61947800;9.05303100;2023-02-11T00:57:35;97942.19;;;-5.36;100.00
7824;BME280;3957;48.61947800;9.05303100;2023-02-11T00:58:36;97945.75;;;-5.38;100.00
7824;BME280;3957;48.61947800;9.05303100;2023-02-11T00:59:37;97949.94;;;-5.34;100.00
7824;BME280;3957;48.61947800;9.05303100;2023-02-11T01:00:37;97941.16;;;-5.32;100.00
7824;BME280;3957;48.61947800;9.05303100;2023-02-11T01:01:37;97946.41;;;-5.33;100.00
7824;BME280;3957;48.61947800;9.05303100;2023-02-11T01:02:39;97945.69;;;-5.37;100.00
7824;BME280;3957;48.61947800;9.05303100;2023-02-11T01:03:39;97942.22;;;-5.37;100.00
7824;BME280;3957;48.61947800;9.05303100;2023-02-11T01:04:40;97953.41;;;-5.34;100.00
7824;BME280;3957;48.61947800;9.05303100;2023-02-11T01:05:41;97939.19;;;-5.26;100.00
7824;BME280;3957;48.61947800;9.05303100;2023-02-11T01:06:43;97953.22;;;-5.29;100.00
7824;BME280;3957;48.61947800;9.05303100;2023-02-11T01:07:45;97951.59;;;-5.32;100.00
7824;BME280;3957;48.61947800;9.05303100;2023-02-11T01:08:45;97951.59;;;-5.32;100.00
7824;BME280;3957;48.61947800;9.05303100;2023-02-11T01:09:46;97954.34;;;-5.36;100.00
7824;BME280;3957;48.61947800;9.05303100;2023-02-11T01:10:54;97949.25;;;-5.39;100.00
7824;BME280;3957;48.61947800;9.05303100;2023-02-11T01:11:55;97951.03;;;-5.40;100.00
7824;BME280;3957;48.61947800;9.05303100;2023-02-11T01:12:55;97951.94;;;-5.41;100.00
7824;BME280;3957;48.61947800;9.05303100;2023-02-11T01:13:57;97945.19;;;-5.47;100.00
7824;BME280;3957;48.61947800;9.05303100;2023-02-11T01:14:57;97943.56;;;-5.49;100.00
7824;BME280;3957;48.61947800;9.05303100;2023-02-11T01:15:58;97945.34;;;-5.51;100.00
7824;BME280;3957;48.61947800;9.05303100;2023-02-11T01:16:58;97950.63;;;-5.53;100.00
7824;BME280;3957;48.61947800;9.05303100;2023-02-11T01:17:59;97943.78;;;-5.55;100.00
7824;BME280;3957;48.61947800;9.05303100;2023-02-11T01:18:59;97940.31;;;-5.56;100.00
7824;BME280;3957;48.61947800;9.05303100;2023-02-11T01:20:04;97942.09;;;-5.56;100.00
7824;BME280;3957;48.61947800;9.05303100;2023-02-11T01:21:07;97937.72;;;-5.56;100.00
7824;BME280;3957;48.61947800;9.05303100;2023-02-11T01:22:07;97935.16;;;-5.57;100.00
7824;BME280;3957;48.61947800;9.05303100;2023-02-11T01:23:08;97939.50;;;-5.58;100.00
7824;BME280;3957;48.61947800;9.05303100;2023-02-11T01:24:09;97936.06;;;-5.58;100.00
7824;BME280;3957;48.61947800;9.05303100;2023-02-11T01:25:10;97935.22;;;-5.59;100.00
7824;BME280;3957;48.61947800;9.05303100;2023-02-11T01:26:11;97928.13;;;-5.55;100.00
7824;BME280;3957;48.61947800;9.05303100;2023-02-11T01:27:12;97928.81;;;-5.50;100.00
7824;BME280;3957;48.61947800;9.05303100;2023-02-11T01:28:22;97933.06;;;-5.48;100.00
7824;BME280;3957;48.61947800;9.05303100;2023-02-11T01:29:23;97921.59;;;-5.43;100.00
7824;BME280;3957;48.61947800;9.05303100;2023-02-11T01:30:23;97928.47;;;-5.41;100.00
7824;BME280;3957;48.61947800;9.05303100;2023-02-11T01:31:23;97922.34;;;-5.40;100.00
7824;BME280;3957;48.61947800;9.05303100;2023-02-11T01:32:24;97923.91;;;-5.36;100.00
7824;BME280;3957;48.61947800;9.05303100;2023-02-11T01:33:27;97918.50;;;-5.31;100.00
7824;BME280;3957;48.61947800;9.05303100;2023-02-11T01:34:27;97916.66;;;-5.27;100.00
7824;BME280;3957;48.61947800;9.05303100;2023-02-11T01:35:28;97913.97;;;-5.26;100.00
7824;BME280;3957;48.61947800;9.05303100;2023-02-11T01:36:29;97918.19;;;-5.23;100.00
7824;BME280;3957;48.61947800;9.05303100;2023-02-11T01:37:32;97916.31;;;-5.20;100.00
7824;BME280;3957;48.61947800;9.05303100;2023-02-11T01:38:33;97915.53;;;-5.22;100.00
7824;BME280;3957;48.61947800;9.05303100;2023-02-11T01:39:34;97910.19;;;-5.19;100.00
7824;BME280;3957;48.61947800;9.05303100;2023-02-11T01:40:35;97906.56;;;-5.15;100.00
7824;BME280;3957;48.61947800;9.05303100;2023-02-11T01:41:36;97911.44;;;-5.07;100.00
7824;BME280;3957;48.61947800;9.05303100;2023-02-11T01:42:36;97908.84;;;-5.07;100.00
7824;BME280;3957;48.61947800;9.05303100;2023-02-11T01:43:40;97911.72;;;-5.13;100.00
7824;BME280;3957;48.61947800;9.05303100;2023-02-11T01:44:40;97914.44;;;-5.16;100.00
7824;BME280;3957;48.61947800;9.05303100;2023-02-11T01:46:45;97905.22;;;-5.25;100.00
7824;BME280;3957;48.61947800;9.05303100;2023-02-11T01:47:45;97907.88;;;-5.26;100.00
7824;BME280;3957;48.61947800;9.05303100;2023-02-11T01:48:58;97910.69;;;-5.31;100.00
7824;BME280;3957;48.61947800;9.05303100;2023-02-11T01:50:00;97907.25;;;-5.33;100.00
7824;BME280;3957;48.61947800;9.05303100;2023-02-11T01:51:26;97908.13;;;-5.33;100.00
7824;BME280;3957;48.61947800;9.05303100;2023-02-11T01:52:33;97903.88;;;-5.35;100.00
7824;BME280;3957;48.61947800;9.05303100;2023-02-11T01:53:35;97903.03;;;-5.36;100.00
7824;BME280;3957;48.61947800;9.05303100;2023-02-11T01:54:59;97898.78;;;-5.38;100.00
7824;BME280;3957;48.61947800;9.05303100;2023-02-11T01:56:21;97899.75;;;-5.41;100.00
7824;BME280;3957;48.61947800;9.05303100;2023-02-11T01:57:45;97894.47;;;-5.39;100.00
7824;BME280;3957;48.61947800;9.05303100;2023-02-11T01:58:47;97896.19;;;-5.38;100.00
7824;BME280;3957;48.61947800;9.05303100;2023-02-11T02:00:57;97893.50;;;-5.37;100.00
7824;BME280;3957;48.61947800;9.05303100;2023-02-11T02:02:03;97896.91;;;-5.35;100.00
7824;BME280;3957;48.61947800;9.05303100;2023-02-11T02:03:12;97892.63;;;-5.36;100.00
7824;BME280;3957;48.61947800;9.05303100;2023-02-11T02:04:16;97894.28;;;-5.35;100.00
7824;BME280;3957;48.61947800;9.05303100;2023-02-11T02:05:29;97889.94;;;-5.34;100.00
7824;BME280;3957;48.61947800;9.05303100;2023-02-11T02:06:52;97890.84;;;-5.35;100.00
7824;BME280;3957;48.61947800;9.05303100;2023-02-11T02:08:18;97889.81;;;-5.31;100.00
7824;BME280;3957;48.61947800;9.05303100;2023-02-11T02:09:27;97885.50;;;-5.32;100.00
7824;BME280;3957;48.61947800;9.05303100;2023-02-11T02:10:30;97888.09;;;-5.32;100.00
7824;BME280;3957;48.61947800;9.05303100;2023-02-11T02:11:30;97881.16;;;-5.32;100.00
7824;BME280;3957;48.61947800;9.05303100;2023-02-11T02:12:31;97885.50;;;-5.32;100.00
7824;BME280;3957;48.61947800;9.05303100;2023-02-11T02:13:33;97882.81;;;-5.31;100.00
7824;BME280;3957;48.61947800;9.05303100;2023-02-11T02:14:37;97880.28;;;-5.32;100.00
7824;BME280;3957;48.61947800;9.05303100;2023-02-11T02:15:41;97884.47;;;-5.28;100.00
7824;BME280;3957;48.61947800;9.05303100;2023-02-11T02:16:43;97881.91;;;-5.30;100.00
7824;BME280;3957;48.61947800;9.05303100;2023-02-11T02:20:34;97872.44;;;-5.32;100.00
7824;BME280;3957;48.61947800;9.05303100;2023-02-11T02:29:21;97867.28;;;-5.34;100.00
7824;BME280;3957;48.61947800;9.05303100;2023-02-11T02:30:56;97877.78;;;-5.35;100.00
7824;BME280;3957;48.61947800;9.05303100;2023-02-11T02:34:53;97876.03;;;-5.35;100.00
7824;BME280;3957;48.61947800;9.05303100;2023-02-11T02:37:18;97878.75;;;-5.38;100.00
7824;BME280;3957;48.61947800;9.05303100;2023-02-11T02:38:29;97883.91;;;-5.36;100.00
7824;BME280;3957;48.61947800;9.05303100;2023-02-11T02:39:33;97875.25;;;-5.37;100.00
7824;BME280;3957;48.61947800;9.05303100;2023-02-11T02:40:40;97873.47;;;-5.36;100.00
7824;BME280;3957;48.61947800;9.05303100;2023-02-11T02:41:44;97873.53;;;-5.38;100.00
7824;BME280;3957;48.61947800;9.05303100;2023-02-11T02:42:45;97872.72;;;-5.38;100.00
7824;BME280;3957;48.61947800;9.05303100;2023-02-11T02:43:49;97873.66;;;-5.41;100.00
7824;BME280;3957;48.61947800;9.05303100;2023-02-11T02:44:51;97872.81;;;-5.41;100.00
7824;BME280;3957;48.61947800;9.05303100;2023-02-11T02:45:52;97868.47;;;-5.41;100.00
7824;BME280;3957;48.61947800;9.05303100;2023-02-11T02:46:52;97864.97;;;-5.41;100.00
7824;BME280;3957;48.61947800;9.05303100;2023-02-11T02:47:53;97853.63;;;-5.40;100.00
7824;BME280;3957;48.61947800;9.05303100;2023-02-11T02:48:54;97856.25;;;-5.40;100.00
7824;BME280;3957;48.61947800;9.05303100;2023-02-11T02:49:55;97861.59;;;-5.43;100.00
7824;BME280;3957;48.61947800;9.05303100;2023-02-11T02:56:12;97854.25;;;-5.34;100.00
7824;BME280;3957;48.61947800;9.05303100;2023-02-11T02:58:47;97855.16;;;-5.35;100.00
7824;BME280;3957;48.61947800;9.05303100;2023-02-11T03:05:10;97847.53;;;-5.39;100.00
7824;BME280;3957;48.61947800;9.05303100;2023-02-11T03:07:57;97849.31;;;-5.41;100.00
7824;BME280;3957;48.61947800;9.05303100;2023-02-11T03:10:35;97851.16;;;-5.43;100.00
7824;BME280;3957;48.61947800;9.05303100;2023-02-11T03:11:38;97852.94;;;-5.44;100.00
7824;BME280;3957;48.61947800;9.05303100;2023-02-11T03:12:40;97851.22;;;-5.45;100.00
7824;BME280;3957;48.61947800;9.05303100;2023-02-11T03:13:42;97854.59;;;-5.43;100.00
7824;BME280;3957;48.61947800;9.05303100;2023-02-11T03:14:43;97850.31;;;-5.44;100.00
7824;BME280;3957;48.61947800;9.05303100;2023-02-11T03:15:48;97856.38;;;-5.43;100.00
7824;BME280;3957;48.61947800;9.05303100;2023-02-11T03:16:50;97856.38;;;-5.43;100.00
7824;BME280;3957;48.61947800;9.05303100;2023-02-11T03:17:54;97852.94;;;-5.44;100.00
7824;BME280;3957;48.61947800;9.05303100;2023-02-11T03:19:02;97858.91;;;-5.42;100.00
7824;BME280;3957;48.61947800;9.05303100;2023-02-11T03:20:05;97852.72;;;-5.39;100.00
7824;BME280;3957;48.61947800;9.05303100;2023-02-11T03:21:08;97857.97;;;-5.39;100.00
7824;BME280;3957;48.61947800;9.05303100;2023-02-11T03:22:15;97843.19;;;-5.40;100.00
7824;BME280;3957;48.61947800;9.05303100;2023-02-11T03:23:29;97844.97;;;-5.41;100.00
7824;BME280;3957;48.61947800;9.05303100;2023-02-11T03:24:34;97841.41;;;-5.38;100.00
7824;BME280;3957;48.61947800;9.05303100;2023-02-11T03:25:41;97838.78;;;-5.38;100.00
7824;BME280;3957;48.61947800;9.05303100;2023-02-11T03:26:53;97843.13;;;-5.39;100.00
7824;BME280;3957;48.61947800;9.05303100;2023-02-11T03:30:34;97830.00;;;-5.36;100.00
7824;BME280;3957;48.61947800;9.05303100;2023-02-11T03:32:54;97831.72;;;-5.36;100.00
7824;BME280;3957;48.61947800;9.05303100;2023-02-11T03:34:01;97840.31;;;-5.33;100.00
7824;BME280;3957;48.61947800;9.05303100;2023-02-11T03:35:23;97830.69;;;-5.32;100.00
7824;BME280;3957;48.61947800;9.05303100;2023-02-11T03:36:45;97835.00;;;-5.31;100.00
7824;BME280;3957;48.61947800;9.05303100;2023-02-11T03:38:55;97842.03;;;-5.33;100.00
7824;BME280;3957;48.61947800;9.05303100;2023-02-11T03:40:04;97845.53;;;-5.33;100.00
7824;BME280;3957;48.61947800;9.05303100;2023-02-11T03:41:06;97845.66;;;-5.36;100.00
7824;BME280;3957;48.61947800;9.05303100;2023-02-11T03:42:09;97851.84;;;-5.38;100.00
7824;BME280;3957;48.61947800;9.05303100;2023-02-11T03:43:21;97848.41;;;-5.40;100.00
7824;BME280;3957;48.61947800;9.05303100;2023-02-11T03:44:25;97854.53;;;-5.41;100.00
7824;BME280;3957;48.61947800;9.05303100;2023-02-11T03:45:28;97855.47;;;-5.42;100.00
7824;BME280;3957;48.61947800;9.05303100;2023-02-11T03:46:31;97849.22;;;-5.38;100.00
7824;BME280;3957;48.61947800;9.05303100;2023-02-11T03:47:34;97856.25;;;-5.40;100.00
7824;BME280;3957;48.61947800;9.05303100;2023-02-11T03:48:40;97849.84;;;-5.32;100.00
7824;BME280;3957;48.61947800;9.05303100;2023-02-11T03:49:42;97846.00;;;-5.23;100.00
7824;BME280;3957;48.61947800;9.05303100;2023-02-11T03:50:46;97848.78;;;-5.05;100.00
7824;BME280;3957;48.61947800;9.05303100;2023-02-11T03:51:50;97844.00;;;-4.96;100.00
7824;BME280;3957;48.61947800;9.05303100;2023-02-11T03:52:52;97832.56;;;-4.93;100.00
7824;BME280;3957;48.61947800;9.05303100;2023-02-11T03:53:56;97833.56;;;-4.96;100.00
7824;BME280;3957;48.61947800;9.05303100;2023-02-11T03:55:01;97833.97;;;-4.84;100.00
7824;BME280;3957;48.61947800;9.05303100;2023-02-11T03:56:05;97845.38;;;-4.87;100.00
7824;BME280;3957;48.61947800;9.05303100;2023-02-11T03:57:08;97842.69;;;-4.85;100.00
7824;BME280;3957;48.61947800;9.05303100;2023-02-11T03:58:09;97837.28;;;-4.81;100.00
7824;BME280;3957;48.61947800;9.05303100;2023-02-11T03:59:09;97833.81;;;-4.61;100.00
7824;BME280;3957;48.61947800;9.05303100;2023-02-11T04:00:10;97829.44;;;-4.60;100.00
7824;BME280;3957;48.61947800;9.05303100;2023-02-11T04:01:15;97826.06;;;-4.62;100.00
7824;BME280;3957;48.61947800;9.05303100;2023-02-11T04:02:15;97835.78;;;-4.66;100.00
7824;BME280;3957;48.61947800;9.05303100;2023-02-11T04:03:15;97841.28;;;-4.72;100.00
7824;BME280;3957;48.61947800;9.05303100;2023-02-11T04:04:16;97845.84;;;-4.77;100.00
7824;BME280;3957;48.61947800;9.05303100;2023-02-11T04:05:16;97843.44;;;-4.82;100.00
7824;BME280;3957;48.61947800;9.05303100;2023-02-11T04:06:17;97838.38;;;-4.86;100.00
7824;BME280;3957;48.61947800;9.05303100;2023-02-11T04:07:17;97838.38;;;-4.86;100.00
7824;BME280;3957;48.61947800;9.05303100;2023-02-11T04:08:17;97842.47;;;-4.79;100.00
7824;BME280;3957;48.61947800;9.05303100;2023-02-11T04:09:18;97845.53;;;-4.90;100.00
7824;BME280;3957;48.61947800;9.05303100;2023-02-11T04:10:18;97839.03;;;-5.02;100.00
7824;BME280;3957;48.61947800;9.05303100;2023-02-11T04:11:19;97846.19;;;-5.07;100.00
7824;BME280;3957;48.61947800;9.05303100;2023-02-11T04:12:19;97855.06;;;-5.11;100.00
7824;BME280;3957;48.61947800;9.05303100;2023-02-11T04:13:21;97848.34;;;-5.17;100.00
7824;BME280;3957;48.61947800;9.05303100;2023-02-11T04:14:21;97851.06;;;-5.20;100.00
7824;BME280;3957;48.61947800;9.05303100;2023-02-11T04:15:22;97842.59;;;-5.25;100.00
7824;BME280;3957;48.61947800;9.05303100;2023-02-11T04:16:22;97847.81;;;-5.25;100.00
7824;BME280;3957;48.61947800;9.05303100;2023-02-11T04:17:23;97847.81;;;-5.25;100.00
7824;BME280;3957;48.61947800;9.05303100;2023-02-11T04:18:23;97850.19;;;-5.19;100.00
7824;BME280;3957;48.61947800;9.05303100;2023-02-11T04:19:24;97837.50;;;-5.28;100.00
7824;BME280;3957;48.61947800;9.05303100;2023-02-11T04:20:24;97834.22;;;-5.33;100.00
7824;BME280;3957;48.61947800;9.05303100;2023-02-11T04:21:24;97837.91;;;-5.39;100.00
7824;BME280;3957;48.61947800;9.05303100;2023-02-11T04:22:25;97835.25;;;-5.37;100.00
7824;BME280;3957;48.61947800;9.05303100;2023-02-11T04:23:25;97840.59;;;-5.40;100.00
7824;BME280;3957;48.61947800;9.05303100;2023-02-11T04:24:26;97838.88;;;-5.41;100.00
7824;BME280;3957;48.61947800;9.05303100;2023-02-11T04:25:26;97840.66;;;-5.42;100.00
7824;BME280;3957;48.61947800;9.05303100;2023-02-11T04:26:27;97839.03;;;-5.44;100.00
7824;BME280;3957;48.61947800;9.05303100;2023-02-11T04:27:27;97842.53;;;-5.46;100.00
7824;BME280;3957;48.61947800;9.05303100;2023-02-11T04:28:27;97848.34;;;-5.39;100.00
7824;BME280;3957;48.61947800;9.05303100;2023-02-11T04:29:28;97852.66;;;-5.38;100.00
7824;BME280;3957;48.61947800;9.05303100;2023-02-11T04:30:29;97851.78;;;-5.37;100.00
7824;BME280;3957;48.61947800;9.05303100;2023-02-11T04:31:29;97865.53;;;-5.33;100.00
7824;BME280;3957;48.61947800;9.05303100;2023-02-11T04:32:30;97866.13;;;-5.26;100.00
7824;BME280;3957;48.61947800;9.05303100;2023-02-11T04:33:30;97863.34;;;-5.22;100.00
7824;BME280;3957;48.61947800;9.05303100;2023-02-11T04:34:31;97868.31;;;-5.16;100.00
7824;BME280;3957;48.61947800;9.05303100;2023-02-11T04:35:31;97855.13;;;-5.13;100.00
7824;BME280;3957;48.61947800;9.05303100;2023-02-11T04:36:31;97856.59;;;-5.05;100.00
7824;BME280;3957;48.61947800;9.05303100;2023-02-11T04:37:32;97859.00;;;-5.01;100.00
7824;BME280;3957;48.61947800;9.05303100;2023-02-11T04:38:32;97856.13;;;-4.95;100.00
7824;BME280;3957;48.61947800;9.05303100;2023-02-11T04:39:33;97865.44;;;-4.87;100.00
7824;BME280;3957;48.61947800;9.05303100;2023-02-11T04:40:34;97874.84;;;-4.83;100.00
7824;BME280;3957;48.61947800;9.05303100;2023-02-11T04:41:34;97870.16;;;-4.75;100.00
7824;BME280;3957;48.61947800;9.05303100;2023-02-11T04:42:34;97868.09;;;-4.68;100.00
7824;BME280;3957;48.61947800;9.05303100;2023-02-11T04:43:35;97861.78;;;-4.63;100.00
7824;BME280;3957;48.61947800;9.05303100;2023-02-11T04:44:35;97869.56;;;-4.61;100.00
7824;BME280;3957;48.61947800;9.05303100;2023-02-11T04:45:36;97875.09;;;-4.69;100.00
7824;BME280;3957;48.61947800;9.05303100;2023-02-11T04:46:36;97867.78;;;-4.61;100.00
7824;BME280;3957;48.61947800;9.05303100;2023-02-11T04:47:36;97871.97;;;-4.56;100.00
7824;BME280;3957;48.61947800;9.05303100;2023-02-11T04:48:37;97869.13;;;-4.52;100.00
7824;BME280;3957;48.61947800;9.05303100;2023-02-11T04:49:37;97869.03;;;-4.49;100.00
7824;BME280;3957;48.61947800;9.05303100;2023-02-11T04:50:38;97868.03;;;-4.46;100.00
7824;BME280;3957;48.61947800;9.05303100;2023-02-11T04:51:38;97869.53;;;-4.40;100.00
7824;BME280;3957;48.61947800;9.05303100;2023-02-11T04:52:39;97866.72;;;-4.36;100.00
7824;BME280;3957;48.61947800;9.05303100;2023-02-11T04:53:39;97863.28;;;-4.36;100.00
7824;BME280;3957;48.61947800;9.05303100;2023-02-11T04:54:42;97866.34;;;-4.47;100.00
7824;BME280;3957;48.61947800;9.05303100;2023-02-11T04:55:42;97864.56;;;-4.47;100.00
7824;BME280;3957;48.61947800;9.05303100;2023-02-11T04:56:43;97859.34;;;-4.47;100.00
7824;BME280;3957;48.61947800;9.05303100;2023-02-11T04:57:43;97855.09;;;-4.49;100.00
7824;BME280;3957;48.61947800;9.05303100;2023-02-11T04:58:44;97854.91;;;-4.45;100.00
7824;BME280;3957;48.61947800;9.05303100;2023-02-11T04:59:44;97852.22;;;-4.43;100.00
7824;BME280;3957;48.61947800;9.05303100;2023-02-11T05:00:45;97856.47;;;-4.40;100.00
7824;BME280;3957;48.61947800;9.05303100;2023-02-11T05:01:45;97856.34;;;-4.37;100.00
7824;BME280;3957;48.61947800;9.05303100;2023-02-11T05:02:45;97847.53;;;-4.35;100.00
7824;BME280;3957;48.61947800;9.05303100;2023-02-11T05:03:46;97850.75;;;-4.30;100.00
7824;BME280;3957;48.61947800;9.05303100;2023-02-11T05:04:46;97846.25;;;-4.26;100.00
7824;BME280;3957;48.61947800;9.05303100;2023-02-11T05:05:46;97843.50;;;-4.23;100.00
7824;BME280;3957;48.61947800;9.05303100;2023-02-11T05:06:47;97843.31;;;-4.18;100.00
7824;BME280;3957;48.61947800;9.05303100;2023-02-11T05:07:47;97849.16;;;-4.13;100.00
7824;BME280;3957;48.61947800;9.05303100;2023-02-11T05:08:48;97845.50;;;-4.09;100.00
7824;BME280;3957;48.61947800;9.05303100;2023-02-11T05:09:48;97849.66;;;-4.05;100.00
7824;BME280;3957;48.61947800;9.05303100;2023-02-11T05:10:48;97846.94;;;-4.02;100.00
7824;BME280;3957;48.61947800;9.05303100;2023-02-11T05:11:49;97846.72;;;-3.97;100.00
7824;BME280;3957;48.61947800;9.05303100;2023-02-11T05:12:49;97842.13;;;-3.92;100.00
7824;BME280;3957;48.61947800;9.05303100;2023-02-11T05:13:50;97837.44;;;-3.85;100.00
7824;BME280;3957;48.61947800;9.05303100;2023-02-11T05:14:50;97845.28;;;-3.85;100.00
7824;BME280;3957;48.61947800;9.05303100;2023-02-11T05:15:50;97844.31;;;-3.83;100.00
7824;BME280;3957;48.61947800;9.05303100;2023-02-11T05:16:51;97842.47;;;-3.81;100.00
7824;BME280;3957;48.61947800;9.05303100;2023-02-11T05:17:51;97830.16;;;-3.79;100.00
7824;BME280;3957;48.61947800;9.05303100;2023-02-11T05:18:52;97832.66;;;-3.76;100.00
7824;BME280;3957;48.61947800;9.05303100;2023-02-11T05:19:54;97831.63;;;-3.73;100.00
7824;BME280;3957;48.61947800;9.05303100;2023-02-11T05:20:55;97828.97;;;-3.71;100.00
7824;BME280;3957;48.61947800;9.05303100;2023-02-11T05:21:55;97829.66;;;-3.68;100.00
7824;BME280;3957;48.61947800;9.05303100;2023-02-11T05:22:56;97832.28;;;-3.68;100.00
7824;BME280;3957;48.61947800;9.05303100;2023-02-11T05:23:56;97836.44;;;-3.64;100.00
7824;BME280;3957;48.61947800;9.05303100;2023-02-11T05:24:57;97833.75;;;-3.62;100.00
7824;BME280;3957;48.61947800;9.05303100;2023-02-11T05:25:57;97830.22;;;-3.61;100.00
7824;BME280;3957;48.61947800;9.05303100;2023-02-11T05:26:58;97825.75;;;-3.59;100.00
7824;BME280;3957;48.61947800;9.05303100;2023-02-11T05:27:58;97829.09;;;-3.55;100.00
7824;BME280;3957;48.61947800;9.05303100;2023-02-11T05:28:59;97825.56;;;-3.54;100.00
7824;BME280;3957;48.61947800;9.05303100;2023-02-11T05:29:59;97822.88;;;-3.53;100.00
7824;BME280;3957;48.61947800;9.05303100;2023-02-11T05:31:00;97816.78;;;-3.53;100.00
7824;BME280;3957;48.61947800;9.05303100;2023-02-11T05:32:00;97830.00;;;-3.56;100.00
7824;BME280;3957;48.61947800;9.05303100;2023-02-11T05:33:01;97817.47;;;-3.50;100.00